Time;durP1;ratioP1;P1;durP2;ratioP2;P2;SDS_P1;SDS_P2;PMS_P1;PMS_P2;Temp;Humidity;BMP_temperature;BMP_pressure;BME280_temperature;BME280_humidity;BME280_pressure;Samples;Min_cycle;Max_cycle;Signal;HPM_P1;HPM_P2
2021/04/10 00:00:59;;;;;;;9.43;3.90;;;;;;;3.71;55.14;100080.59;6243748;23;20302;-74
2021/04/10 00:03:25;;;;;;;9.75;4.30;;;;;;;3.68;55.32;100073.03;6217162;23;20003;-75
2021/04/10 00:05:50;;;;;;;9.18;4.22;;;;;;;3.69;55.57;100069.38;6216771;23;20000;-75
2021/04/10 00:08:16;;;;;;;6.47;4.25;;;;;;;3.69;55.22;100072.03;6241778;23;20083;-75
2021/04/10 00:10:42;;;;;;;5.78;3.55;;;;;;;3.69;55.07;100069.38;6243817;23;20031;-75
2021/04/10 00:13:07;;;;;;;7.63;3.67;;;;;;;3.68;55.54;100068.56;6243524;23;20071;-77
2021/04/10 00:15:33;;;;;;;6.45;4.18;;;;;;;3.69;55.43;100067.53;6243856;23;20007;-76
2021/04/10 00:17:58;;;;;;;8.10;4.53;;;;;;;3.65;55.56;100061.03;6243943;23;20006;-77
2021/04/10 00:20:25;;;;;;;12.65;5.28;;;;;;;3.67;55.50;100061.66;6241680;23;20383;-76
2021/04/10 00:22:51;;;;;;;10.80;5.03;;;;;;;3.65;55.55;100057.56;6216968;23;20000;-76
2021/04/10 00:25:17;;;;;;;8.45;4.95;;;;;;;3.66;55.71;100061.84;6243511;23;20012;-77
2021/04/10 00:27:43;;;;;;;12.40;5.30;;;;;;;3.64;55.84;100050.69;6217071;23;20008;-77
2021/04/10 00:30:11;;;;;;;9.18;6.05;;;;;;;3.65;55.75;100054.91;6243561;23;20306;-76
2021/04/10 00:32:36;;;;;;;9.80;6.55;;;;;;;3.64;55.36;100054.13;6216756;23;20134;-75
2021/04/10 00:35:03;;;;;;;16.77;8.98;;;;;;;3.63;55.70;100049.84;6243967;23;20027;-74
2021/04/10 00:37:29;;;;;;;11.75;6.70;;;;;;;3.65;55.73;100057.56;6242717;23;20000;-76
2021/04/10 00:39:54;;;;;;;10.80;6.10;;;;;;;3.65;55.88;100050.47;6216742;23;20329;-75
2021/04/10 00:42:19;;;;;;;8.52;6.22;;;;;;;3.64;56.04;100054.13;6243418;23;20003;-75
2021/04/10 00:44:45;;;;;;;7.90;5.60;;;;;;;3.64;55.84;100051.47;6243663;23;20000;-74
2021/04/10 00:47:10;;;;;;;8.75;6.18;;;;;;;3.64;55.96;100054.13;6242244;23;20370;-75
2021/04/10 00:49:36;;;;;;;9.88;6.22;;;;;;;3.61;56.22;100051.06;6246057;23;20016;-74
2021/04/10 00:52:02;;;;;;;10.50;7.13;;;;;;;3.60;56.31;100044.97;6246643;23;20000;-75
2021/04/10 00:54:28;;;;;;;13.52;5.57;;;;;;;3.62;56.17;100060.63;6246374;23;20003;-74
2021/04/10 00:56:53;;;;;;;11.10;6.70;;;;;;;3.62;56.02;100056.16;6245757;23;20001;-75
2021/04/10 00:59:19;;;;;;;10.95;5.75;;;;;;;3.63;56.19;100054.34;6245121;23;20079;-74
2021/04/10 01:01:44;;;;;;;6.82;5.28;;;;;;;3.62;56.07;100058.00;6244312;23;19996;-72
2021/04/10 01:04:10;;;;;;;10.02;6.72;;;;;;;3.58;56.30;100054.16;6243638;23;20078;-73
2021/04/10 01:06:35;;;;;;;11.45;5.90;;;;;;;3.55;56.69;100050.03;6216306;23;20472;-72
2021/04/10 01:09:01;;;;;;;8.52;5.13;;;;;;;3.55;56.46;100041.31;6243836;23;19996;-72
2021/04/10 01:11:46;;;;;;;9.93;4.93;;;;;;;3.56;56.12;100050.88;6243101;23;20004;-72
2021/04/10 01:14:47;;;;;;;7.50;4.05;;;;;;;3.55;56.22;100049.25;6242985;23;20004;-71
2021/04/10 01:17:18;;;;;;;6.78;3.13;;;;;;;3.52;56.37;100047.81;6222082;23;20083;-72
2021/04/10 01:20:14;;;;;;;11.00;4.53;;;;;;;3.51;56.07;100048.84;6243155;23;20413;-74
2021/04/10 01:23:07;;;;;;;8.18;3.80;;;;;;;3.49;56.11;100045.56;6216405;23;20130;-73
2021/04/10 01:25:38;;;;;;;7.40;3.90;;;;;;;3.45;56.01;100042.53;6242785;23;20069;-72
2021/04/10 01:28:16;;;;;;;4.55;3.25;;;;;;;3.43;55.72;100041.09;6243233;23;20011;-74
2021/04/10 01:30:42;;;;;;;6.53;3.72;;;;;;;3.41;56.32;100033.38;6242900;23;20007;-74
2021/04/10 01:33:13;;;;;;;5.28;3.10;;;;;;;3.38;56.27;100036.44;6216362;23;20008;-72
2021/04/10 01:35:43;;;;;;;5.03;3.00;;;;;;;3.35;56.63;100031.56;6244226;23;20030;-75
2021/04/10 01:38:13;;;;;;;2.67;2.30;;;;;;;3.32;56.23;100032.78;6243946;23;20005;-76
2021/04/10 01:40:40;;;;;;;9.27;3.05;;;;;;;3.29;56.51;100027.09;6243664;23;20058;-78
2021/04/10 01:43:08;;;;;;;4.78;2.67;;;;;;;3.27;56.51;100023.81;6244618;23;20067;-76
2021/04/10 01:45:34;;;;;;;3.83;2.40;;;;;;;3.26;56.58;100024.84;6245295;23;20031;-76
2021/04/10 01:48:03;;;;;;;4.97;2.50;;;;;;;3.24;56.71;100024.25;6245302;23;19996;-77
2021/04/10 01:50:29;;;;;;;3.63;2.60;;;;;;;3.23;56.92;100026.06;6244516;23;20096;-76
2021/04/10 01:52:55;;;;;;;2.70;2.33;;;;;;;3.20;56.60;100034.41;6246093;23;20436;-76
2021/04/10 01:55:23;;;;;;;7.43;2.80;;;;;;;3.16;56.70;100028.72;6244657;23;20066;-77
2021/04/10 01:57:50;;;;;;;4.72;2.50;;;;;;;3.15;56.81;100023.63;6246274;23;20006;-75
2021/04/10 02:00:17;;;;;;;3.97;2.70;;;;;;;3.11;56.77;100030.31;6245156;23;20043;-76
2021/04/10 02:02:44;;;;;;;5.07;2.25;;;;;;;3.09;56.70;100030.53;6245727;23;20031;-75
2021/04/10 02:05:13;;;;;;;3.80;2.72;;;;;;;3.09;56.79;100035.00;6245473;23;20004;-76
2021/04/10 02:07:42;;;;;;;5.68;2.45;;;;;;;3.09;56.98;100037.63;6243722;23;20075;-75
2021/04/10 02:10:09;;;;;;;3.28;2.60;;;;;;;3.09;57.18;100042.91;6244930;23;20078;-75
2021/04/10 02:12:34;;;;;;;3.20;2.80;;;;;;;3.05;57.05;100034.59;6244845;23;20004;-75
2021/04/10 02:15:01;;;;;;;4.68;2.78;;;;;;;3.04;57.10;100031.13;6245288;23;20003;-76
2021/04/10 02:17:28;;;;;;;4.70;2.47;;;;;;;3.07;57.12;100037.03;6246815;23;20000;-77
2021/04/10 02:19:55;;;;;;;5.55;3.65;;;;;;;3.06;56.76;100048.63;6243862;23;20375;-76
2021/04/10 02:22:22;;;;;;;5.15;2.80;;;;;;;3.04;56.77;100040.91;6244194;23;20110;-77
2021/04/10 02:24:48;;;;;;;7.50;3.50;;;;;;;3.06;56.85;100046.00;6246410;23;19996;-77
2021/04/10 02:27:13;;;;;;;5.47;3.90;;;;;;;3.03;56.92;100044.56;6244434;23;20004;-77
2021/04/10 02:29:39;;;;;;;7.13;4.38;;;;;;;3.03;57.11;100039.28;6245380;23;20003;-76
2021/04/10 02:32:08;;;;;;;6.45;3.97;;;;;;;3.02;57.32;100038.44;6242913;23;20004;-75
2021/04/10 02:34:42;;;;;;;5.32;2.80;;;;;;;3.03;57.11;100041.91;6244771;23;19996;-75
2021/04/10 02:37:08;;;;;;;5.82;3.28;;;;;;;2.99;57.45;100045.97;6218031;23;20333;-75
2021/04/10 02:39:35;;;;;;;4.82;2.88;;;;;;;3.00;57.62;100048.44;6244514;23;20000;-76
2021/04/10 02:42:02;;;;;;;10.90;5.25;;;;;;;2.97;57.86;100048.00;6244028;23;20677;-77
2021/04/10 02:44:35;;;;;;;8.10;3.75;;;;;;;2.98;57.75;100044.34;6218154;23;20005;-76
2021/04/10 02:47:05;;;;;;;6.45;3.67;;;;;;;2.97;57.77;100048.81;6244242;23;20348;-76
2021/04/10 02:49:31;;;;;;;7.25;3.92;;;;;;;2.92;58.11;100040.69;6246897;23;20071;-77
2021/04/10 02:51:59;;;;;;;11.35;5.25;;;;;;;2.92;58.54;100042.50;6251485;23;20000;-77
2021/04/10 02:54:29;;;;;;;13.05;7.35;;;;;;;2.90;58.56;100042.69;6249768;23;20073;-73
2021/04/10 02:57:04;;;;;;;14.50;7.68;;;;;;;2.84;58.87;100044.31;6249104;23;20071;-77
2021/04/10 02:59:32;;;;;;;17.40;8.48;;;;;;;2.81;58.69;100043.91;6247373;23;20448;-77
2021/04/10 03:01:58;;;;;;;14.93;7.67;;;;;;;2.75;58.68;100040.25;6248106;23;20000;-77
2021/04/10 03:04:24;;;;;;;12.75;6.18;;;;;;;2.71;59.33;100041.63;6247822;23;20215;-77
2021/04/10 03:06:50;;;;;;;12.65;7.80;;;;;;;2.68;59.05;100042.84;6246125;23;20027;-77
2021/04/10 03:09:16;;;;;;;13.35;6.63;;;;;;;2.64;59.05;100043.47;6245443;23;19996;-76
2021/04/10 03:11:42;;;;;;;14.15;7.57;;;;;;;2.61;59.36;100046.50;6246081;23;20099;-77
2021/04/10 03:14:08;;;;;;;17.58;7.78;;;;;;;2.58;59.21;100046.91;6244153;23;20430;-74
2021/04/10 03:16:34;;;;;;;11.50;6.97;;;;;;;2.53;59.75;100036.94;6243990;23;20006;-75
2021/04/10 03:19:03;;;;;;;14.80;7.30;;;;;;;2.53;59.92;100047.50;6217413;23;20333;-76
2021/04/10 03:21:29;;;;;;;;;;;;;;;2.51;59.90;100052.94;6244633;23;20003;-76
2021/04/10 03:23:54;;;;;;;10.00;5.53;;;;;;;2.43;59.93;100044.41;6244699;23;19903;-76
2021/04/10 03:26:20;;;;;;;10.13;6.38;;;;;;;2.43;60.15;100041.75;6244598;23;20015;-76
2021/04/10 03:28:47;;;;;;;10.25;5.65;;;;;;;2.35;60.33;100043.56;6244256;23;20062;-76
2021/04/10 03:31:13;;;;;;;12.80;6.07;;;;;;;2.31;60.47;100054.72;6243942;23;20007;-75
2021/04/10 03:33:39;;;;;;;11.70;5.57;;;;;;;2.27;60.57;100054.31;6245057;23;20441;-77
2021/04/10 03:36:06;;;;;;;8.32;5.25;;;;;;;2.25;60.41;100058.97;6246102;23;20000;-77
2021/04/10 03:38:32;;;;;;;8.30;4.55;;;;;;;2.21;60.49;100053.25;6246131;23;20367;-75
2021/04/10 03:41:05;;;;;;;10.68;6.32;;;;;;;2.22;60.62;100065.44;6244885;23;20050;-75
2021/04/10 03:43:30;;;;;;;10.70;6.43;;;;;;;2.17;60.31;100062.59;6244125;23;20417;-75
2021/04/10 03:45:55;;;;;;;13.32;5.95;;;;;;;2.14;60.42;100056.88;6244536;23;19996;-76
2021/04/10 03:48:21;;;;;;;8.77;4.55;;;;;;;2.14;60.48;100057.69;6244772;23;20035;-75
2021/04/10 03:50:46;;;;;;;9.77;5.05;;;;;;;2.15;60.25;100064.59;6244312;23;20003;-75
2021/04/10 03:53:12;;;;;;;8.70;5.32;;;;;;;2.16;60.28;100065.41;6243972;23;20007;-75
2021/04/10 03:55:38;;;;;;;6.60;4.75;;;;;;;2.22;60.68;100068.09;6243083;23;20429;-75
2021/04/10 03:58:03;;;;;;;8.93;5.38;;;;;;;2.32;60.44;100070.38;6242083;23;19996;-75
2021/04/10 04:00:29;;;;;;;8.70;4.22;;;;;;;2.47;60.24;100074.69;6243525;23;20003;-75
2021/04/10 04:02:56;;;;;;;5.70;4.07;;;;;;;2.64;59.90;100075.16;6243723;23;20000;-75
2021/04/10 04:05:22;;;;;;;4.65;4.07;;;;;;;2.84;60.05;100072.56;6243263;23;19996;-76
2021/04/10 04:07:48;;;;;;;6.15;4.80;;;;;;;3.06;59.55;100081.16;6244123;23;20452;-76
2021/04/10 04:10:13;;;;;;;5.68;4.20;;;;;;;3.27;58.90;100079.34;6243741;23;20004;-77
2021/04/10 04:12:39;;;;;;;4.97;3.60;;;;;;;3.57;58.38;100084.25;6243383;23;20015;-77
2021/04/10 04:15:06;;;;;;;7.53;4.53;;;;;;;3.87;57.76;100083.81;6243017;23;20429;-76
2021/04/10 04:17:31;;;;;;;7.93;5.20;;;;;;;4.15;56.97;100083.53;6242053;23;20011;-75
2021/04/10 04:19:56;;;;;;;7.25;5.22;;;;;;;4.53;55.74;100087.28;6243354;23;19996;-74
2021/04/10 04:22:22;;;;;;;8.27;5.00;;;;;;;4.88;54.91;100081.63;6243199;23;20004;-74
2021/04/10 04:24:47;;;;;;;8.10;5.28;;;;;;;5.24;53.30;100088.94;6241817;23;20011;-76
2021/04/10 04:27:13;;;;;;;9.00;6.03;;;;;;;5.60;52.44;100092.75;6243078;23;20054;-74
2021/04/10 04:29:38;;;;;;;11.32;7.28;;;;;;;5.99;51.03;100091.81;6243114;23;20441;-74
2021/04/10 04:32:04;;;;;;;11.82;8.00;;;;;;;6.33;49.98;100086.97;6243215;23;20079;-74
2021/04/10 04:34:29;;;;;;;17.52;7.07;;;;;;;6.69;49.23;100088.78;6243489;23;20042;-75
2021/04/10 04:36:55;;;;;;;8.85;4.95;;;;;;;7.00;47.53;100086.13;6242842;23;20008;-73
2021/04/10 04:39:20;;;;;;;7.45;4.63;;;;;;;7.39;46.82;100089.22;6241520;23;20011;-74
2021/04/10 04:41:45;;;;;;;7.70;3.92;;;;;;;7.78;45.28;100091.47;6243103;23;20071;-73
2021/04/10 04:44:11;;;;;;;11.88;4.70;;;;;;;8.12;45.09;100089.03;6243309;23;20031;-74
2021/04/10 04:46:36;;;;;;;7.32;4.07;;;;;;;8.52;43.62;100096.28;6242807;23;20023;-75
2021/04/10 04:49:02;;;;;;;7.70;4.63;;;;;;;8.89;42.43;100093.22;6243159;23;20000;-75
2021/04/10 04:51:28;;;;;;;7.10;4.32;;;;;;;9.26;42.25;100087.50;6242688;23;20007;-75
2021/04/10 04:53:53;;;;;;;10.43;5.70;;;;;;;9.71;41.25;100088.44;6243061;23;19996;-75
2021/04/10 04:56:19;;;;;;;15.35;8.02;;;;;;;10.08;40.10;100089.75;6216515;23;20001;-76
2021/04/10 04:58:44;;;;;;;11.50;6.63;;;;;;;10.45;38.95;100089.22;6242527;23;20058;-76
2021/04/10 05:01:10;;;;;;;8.98;4.82;;;;;;;10.67;38.71;100091.84;6243105;23;20022;-76
2021/04/10 05:03:35;;;;;;;7.97;5.65;;;;;;;11.02;38.04;100098.66;6215970;23;20004;-74
2021/04/10 05:06:00;;;;;;;7.53;4.97;;;;;;;11.31;37.23;100095.69;6243341;23;20084;-77
2021/04/10 05:08:26;;;;;;;7.40;4.72;;;;;;;11.60;36.39;100089.22;6240874;23;20000;-75
2021/04/10 05:10:51;;;;;;;6.85;5.82;;;;;;;11.88;35.87;100096.13;6243168;23;20060;-75
2021/04/10 05:13:16;;;;;;;10.77;6.70;;;;;;;12.16;35.80;100094.16;6242816;23;20038;-75
2021/04/10 05:15:42;;;;;;;11.68;6.53;;;;;;;12.41;34.61;100101.50;6242710;23;20572;-75
2021/04/10 05:18:08;;;;;;;9.95;7.00;;;;;;;12.57;34.50;100099.72;6243204;23;20298;-75
2021/04/10 05:20:33;;;;;;;8.40;5.80;;;;;;;12.82;34.48;100108.91;6242054;23;20075;-74
2021/04/10 05:22:58;;;;;;;10.98;6.45;;;;;;;13.03;34.37;100107.06;6243973;23;19996;-74
2021/04/10 05:25:24;;;;;;;13.52;7.03;;;;;;;13.18;33.94;100106.25;6217743;23;20004;-74
2021/04/10 05:27:50;;;;;;;11.48;6.80;;;;;;;13.35;33.47;100102.53;6245210;23;20007;-74
2021/04/10 05:30:17;;;;;;;11.32;6.80;;;;;;;13.49;33.15;100106.31;6245082;23;19996;-75
2021/04/10 05:32:43;;;;;;;7.47;5.40;;;;;;;13.65;33.03;100098.25;6244627;23;20023;-75
2021/04/10 05:35:09;;;;;;;7.25;5.07;;;;;;;13.78;32.51;100089.66;6244790;23;20004;-74
2021/04/10 05:37:34;;;;;;;7.70;5.75;;;;;;;13.92;32.27;100098.72;6244763;23;20443;-76
2021/04/10 05:40:01;;;;;;;7.93;5.32;;;;;;;14.02;32.23;100103.28;6217689;23;20277;-76
2021/04/10 05:42:27;;;;;;;8.07;4.65;;;;;;;14.15;31.70;100096.53;6217837;23;20079;-76
2021/04/10 05:44:52;;;;;;;6.53;4.78;;;;;;;14.17;31.10;100091.69;6244845;23;20380;-75
2021/04/10 05:47:18;;;;;;;11.07;4.85;;;;;;;14.22;31.53;100098.91;6244799;23;20023;-75
2021/04/10 05:49:43;;;;;;;5.43;4.57;;;;;;;14.27;31.37;100100.78;6244148;23;20455;-75
2021/04/10 05:52:08;;;;;;;9.02;5.15;;;;;;;14.27;31.11;100093.53;6243202;23;20050;-74
2021/04/10 05:54:34;;;;;;;10.23;6.10;;;;;;;14.33;31.39;100089.75;6243272;23;20003;-75
2021/04/10 05:56:59;;;;;;;7.50;5.00;;;;;;;14.38;31.44;100089.72;6242023;23;20004;-75
2021/04/10 05:59:25;;;;;;;7.63;5.30;;;;;;;14.45;31.10;100094.78;6242884;23;20001;-75
2021/04/10 06:01:50;;;;;;;10.07;6.32;;;;;;;14.45;31.54;100092.09;6243333;23;20000;-76
2021/04/10 06:04:16;;;;;;;8.73;6.15;;;;;;;14.45;31.83;100099.38;6243606;23;19996;-73
2021/04/10 06:06:41;;;;;;;14.13;8.15;;;;;;;14.39;31.71;100087.84;6242683;23;20000;-75
2021/04/10 06:09:06;;;;;;;10.55;6.10;;;;;;;14.43;31.77;100088.91;6243341;23;20015;-74
2021/04/10 06:11:32;;;;;;;8.25;6.20;;;;;;;14.41;31.79;100091.06;6244358;23;20330;-75
2021/04/10 06:13:57;;;;;;;18.65;10.48;;;;;;;14.29;32.21;100085.97;6217851;23;20003;-75
2021/04/10 06:16:23;;;;;;;15.23;8.10;;;;;;;14.27;31.95;100092.72;6244614;23;20046;-73
2021/04/10 06:18:48;;;;;;;13.25;7.25;;;;;;;14.22;32.51;100085.47;6217361;23;20378;-72
2021/04/10 06:21:14;;;;;;;10.38;6.18;;;;;;;14.13;32.13;100090.63;6244004;23;20038;-73
2021/04/10 06:23:39;;;;;;;9.32;5.72;;;;;;;14.07;31.93;100092.53;6244305;23;20026;-74
2021/04/10 06:26:04;;;;;;;5.40;4.50;;;;;;;13.88;31.35;100100.38;6217696;23;20012;-73
2021/04/10 06:28:30;;;;;;;6.60;4.97;;;;;;;13.75;32.09;100085.59;6244388;23;20028;-76
2021/04/10 06:30:56;;;;;;;9.10;5.65;;;;;;;13.68;32.77;100086.97;6244004;23;20008;-74
2021/04/10 06:33:23;;;;;;;7.93;5.47;;;;;;;13.59;33.54;100094.75;6243172;23;20445;-73
2021/04/10 06:35:50;;;;;;;9.45;6.20;;;;;;;13.54;33.57;100092.09;6242602;23;20031;-73
2021/04/10 06:38:15;;;;;;;12.20;6.53;;;;;;;13.52;33.23;100086.97;6242764;23;20005;-75
2021/04/10 06:40:40;;;;;;;10.98;6.55;;;;;;;13.23;32.72;100095.53;6216010;23;20022;-75
2021/04/10 06:43:06;;;;;;;8.40;5.72;;;;;;;13.16;33.38;100099.53;6242932;23;20023;-76
2021/04/10 06:45:32;;;;;;;18.20;9.43;;;;;;;13.09;34.50;100105.19;6242468;23;20026;-75
2021/04/10 06:47:59;;;;;;;8.57;5.80;;;;;;;12.96;34.68;100093.06;6242605;23;20057;-75
2021/04/10 06:50:26;;;;;;;8.87;5.93;;;;;;;12.79;35.14;100106.72;6242332;23;20445;-78
2021/04/10 06:52:54;;;;;;;8.18;6.30;;;;;;;12.75;35.23;100100.28;6243445;23;20227;-89
2021/04/10 06:55:23;;;;;;;7.07;5.57;;;;;;;12.67;34.80;100101.63;6216416;23;20035;-86
2021/04/10 06:58:04;;;;;;;6.32;5.45;;;;;;;12.56;35.89;100099.94;6241193;23;20000;-79
2021/04/10 07:00:30;;;;;;;8.15;4.88;;;;;;;12.42;37.23;100092.38;6216116;23;20028;-88
2021/04/10 07:02:57;;;;;;;6.15;4.50;;;;;;;12.35;37.14;100099.88;6241256;23;20027;-85
2021/04/10 07:05:28;;;;;;;7.13;5.03;;;;;;;12.30;36.08;100099.84;6218429;23;20020;-89
2021/04/10 07:07:54;;;;;;;9.57;6.03;;;;;;;12.22;36.65;100090.44;6243063;23;20018;-93
2021/04/10 07:10:21;;;;;;;7.90;4.78;;;;;;;12.20;34.73;100091.78;6243852;23;20604;-77
2021/04/10 07:12:47;;;;;;;5.53;4.70;;;;;;;12.17;36.37;100085.06;6216700;23;19996;-79
2021/04/10 07:15:15;;;;;;;6.57;4.63;;;;;;;12.16;35.86;100097.63;6237820;23;19996;-84
2021/04/10 07:17:40;;;;;;;8.77;4.67;;;;;;;12.04;35.26;100090.88;6214725;23;20008;-85
2021/04/10 07:20:25;;;;;;;7.80;4.38;;;;;;;12.08;36.65;100086.59;6241785;23;20122;-84
2021/04/10 07:23:10;;;;;;;5.05;4.30;;;;;;;12.08;35.78;100089.28;6215862;23;20821;-78
2021/04/10 07:25:38;;;;;;;7.10;4.00;;;;;;;11.99;35.12;100094.34;6241634;23;20011;-82
2021/04/10 07:28:25;;;;;;;6.45;4.50;;;;;;;12.03;35.38;100090.06;6216534;23;20024;-80
2021/04/10 07:31:02;;;;;;;5.85;4.35;;;;;;;12.08;34.65;100094.66;6215322;23;20008;-78
2021/04/10 07:33:28;;;;;;;7.28;4.43;;;;;;;12.12;34.50;100087.69;6242559;23;20004;-81
2021/04/10 07:35:54;;;;;;;6.03;4.70;;;;;;;12.16;34.72;100086.13;6241082;23;20000;-77
2021/04/10 07:38:32;;;;;;;6.30;4.32;;;;;;;12.16;35.34;100086.13;6215972;23;20018;-80
2021/04/10 07:40:58;;;;;;;6.03;4.55;;;;;;;12.29;35.02;100087.50;6241666;23;20429;-75
2021/04/10 07:43:36;;;;;;;6.55;4.65;;;;;;;12.42;34.96;100086.22;6243484;23;20416;-76
2021/04/10 07:46:16;;;;;;;5.80;4.15;;;;;;;12.47;34.34;100078.19;6216464;23;20000;-75
2021/04/10 07:49:03;;;;;;;7.63;3.67;;;;;;;12.48;34.26;100088.66;6243033;23;20428;-77
2021/04/10 07:51:30;;;;;;;7.90;4.30;;;;;;;12.54;34.30;100080.66;6243486;23;19996;-75
2021/04/10 07:53:57;;;;;;;8.45;3.85;;;;;;;12.50;33.52;100083.03;6216821;23;20008;-76
2021/04/10 07:56:23;;;;;;;4.72;3.28;;;;;;;12.41;32.76;100082.72;6243570;23;19996;-76
2021/04/10 07:58:48;;;;;;;5.10;4.00;;;;;;;12.33;32.94;100070.63;6242996;23;20087;-79
2021/04/10 08:01:15;;;;;;;7.25;3.50;;;;;;;12.28;32.51;100072.47;6241742;23;19996;-82
2021/04/10 08:03:50;;;;;;;5.90;3.78;;;;;;;12.23;33.73;100075.13;6241709;23;20111;-82
2021/04/10 08:06:17;;;;;;;6.53;3.95;;;;;;;12.29;33.67;100077.59;6241753;23;20004;-85
2021/04/10 08:08:42;;;;;;;5.80;4.40;;;;;;;12.30;33.18;100073.03;6241483;23;20031;-81
2021/04/10 08:11:08;;;;;;;5.15;3.72;;;;;;;12.36;33.81;100077.34;6242139;23;20007;-79
2021/04/10 08:13:33;;;;;;;8.40;3.97;;;;;;;12.41;33.77;100087.28;6240709;23;20004;-77
2021/04/10 08:16:14;;;;;;;4.38;3.30;;;;;;;12.39;34.08;100079.50;6216436;23;20082;-79
2021/04/10 08:18:46;;;;;;;5.75;3.63;;;;;;;12.40;34.69;100083.81;6242858;23;20075;-86
2021/04/10 08:21:14;;;;;;;6.55;4.32;;;;;;;12.39;34.70;100078.69;6216627;23;20004;-78
2021/04/10 08:23:39;;;;;;;4.85;3.45;;;;;;;12.37;33.75;100076.28;6216218;23;20031;-83
2021/04/10 08:26:05;;;;;;;8.82;3.90;;;;;;;12.33;35.12;100080.56;6216601;23;20012;-83
2021/04/10 08:28:31;;;;;;;6.07;4.43;;;;;;;12.36;34.38;100080.03;6190980;23;20008;-83
2021/04/10 08:30:58;;;;;;;4.88;3.10;;;;;;;12.40;34.29;100080.31;6241375;23;20023;-81
2021/04/10 08:33:28;;;;;;;47.10;29.48;;;;;;;12.34;33.38;100066.09;6241387;23;20022;-79
2021/04/10 08:35:58;;;;;;;6.72;5.82;;;;;;;12.36;33.47;100069.28;6241540;23;19996;-81
2021/04/10 08:38:29;;;;;;;6.15;4.20;;;;;;;12.40;34.56;100069.56;6216313;23;20027;-79
2021/04/10 08:40:56;;;;;;;6.60;3.65;;;;;;;12.42;35.15;100070.13;6216544;23;19996;-82
2021/04/10 08:43:25;;;;;;;3.58;3.05;;;;;;;12.43;35.33;100064.50;6216081;23;20017;-83
2021/04/10 08:45:53;;;;;;;6.45;3.00;;;;;;;12.52;34.62;100069.34;6216259;23;20008;-80
2021/04/10 08:48:22;;;;;;;5.07;3.65;;;;;;;12.53;35.27;100065.59;6216154;23;20058;-81
2021/04/10 08:50:51;;;;;;;3.90;2.90;;;;;;;12.59;34.35;100057.28;6216046;23;20058;-80
2021/04/10 08:53:27;;;;;;;4.15;2.42;;;;;;;12.66;32.76;100062.44;6216972;23;19996;-81
2021/04/10 08:55:54;;;;;;;5.20;3.85;;;;;;;12.56;33.05;100065.88;6216382;23;20087;-84
2021/04/10 08:58:27;;;;;;;3.95;3.45;;;;;;;12.55;33.56;100063.44;6215778;23;20032;-79
2021/04/10 09:00:58;;;;;;;3.78;3.20;;;;;;;12.56;33.94;100049.78;6215964;23;20007;-80
2021/04/10 09:03:42;;;;;;;3.08;2.72;;;;;;;12.64;34.88;100054.63;6216357;23;20004;-79
2021/04/10 09:06:08;;;;;;;2.63;2.42;;;;;;;12.69;34.74;100051.16;6216630;23;20035;-82
2021/04/10 09:08:33;;;;;;;6.55;3.72;;;;;;;12.82;34.42;100047.16;6241377;23;20000;-83
2021/04/10 09:11:01;;;;;;;4.32;3.20;;;;;;;12.89;34.15;100045.03;6217945;23;20031;-93
2021/04/10 09:13:50;;;;;;;3.53;2.70;;;;;;;12.96;33.87;100039.38;6218079;23;20004;-82
2021/04/10 09:16:28;;;;;;;7.03;3.15;;;;;;;13.04;33.22;100041.53;6245961;23;20004;-81
2021/04/10 09:19:14;;;;;;;4.85;3.05;;;;;;;13.04;32.36;100032.69;6216704;23;20007;-80
2021/04/10 09:21:41;;;;;;;3.85;3.10;;;;;;;13.03;34.28;100036.44;6215902;23;20000;-82
2021/04/10 09:24:24;;;;;;;5.53;2.83;;;;;;;13.08;33.25;100034.53;6242136;23;20383;-82
2021/04/10 09:27:04;;;;;;;3.97;2.85;;;;;;;13.10;34.15;100031.63;6241519;23;20114;-82
2021/04/10 09:29:51;;;;;;;3.72;2.60;;;;;;;13.18;33.41;100027.56;6216539;23;20082;-81
2021/04/10 09:32:39;;;;;;;4.53;2.97;;;;;;;13.21;34.43;100022.47;6216631;23;20336;-83
2021/04/10 09:35:17;;;;;;;3.63;2.60;;;;;;;13.30;33.40;100025.41;6242352;23;20391;-82
2021/04/10 09:37:42;;;;;;;5.03;2.30;;;;;;;13.33;32.53;100024.06;6216270;23;20087;-82
2021/04/10 09:40:21;;;;;;;3.47;2.35;;;;;;;13.38;31.75;100013.38;6216740;23;20000;-83
2021/04/10 09:42:49;;;;;;;4.22;3.33;;;;;;;13.41;31.64;100007.44;6216560;23;20008;-82
2021/04/10 09:45:20;;;;;;;7.00;3.15;;;;;;;13.50;32.14;100003.13;6216663;23;20337;-82
2021/04/10 09:48:01;;;;;;;3.78;2.45;;;;;;;13.54;32.06;99998.81;6241707;23;20004;-81
2021/04/10 09:50:37;;;;;;;5.18;3.03;;;;;;;13.62;30.59;100000.13;6216654;23;20023;-82
2021/04/10 09:53:08;;;;;;;3.28;2.50;;;;;;;13.64;30.50;99991.81;6241977;23;20008;-82
2021/04/10 09:55:38;;;;;;;5.30;2.65;;;;;;;13.69;30.46;99989.13;6241432;23;20027;-82
2021/04/10 09:58:07;;;;;;;5.20;3.05;;;;;;;13.69;29.48;99991.81;6216348;23;20095;-80
2021/04/10 10:00:38;;;;;;;4.65;2.35;;;;;;;13.68;27.86;99987.50;6215498;23;20004;-81
2021/04/10 10:03:08;;;;;;;3.83;2.38;;;;;;;13.69;29.67;99978.38;6216365;23;20031;-80
2021/04/10 10:05:39;;;;;;;4.40;2.08;;;;;;;13.71;29.35;99987.75;6216236;23;20074;-81
2021/04/10 10:08:07;;;;;;;5.45;2.88;;;;;;;13.70;28.86;99980.78;6241802;23;20074;-80
2021/04/10 10:10:37;;;;;;;3.83;2.08;;;;;;;13.70;28.13;99970.00;6217396;23;20454;-80
2021/04/10 10:13:04;;;;;;;3.38;2.60;;;;;;;13.69;28.30;99972.97;6217988;23;20004;-80
2021/04/10 10:15:31;;;;;;;3.63;2.60;;;;;;;13.73;30.14;99964.09;6217816;23;20004;-80
2021/04/10 10:17:58;;;;;;;3.05;2.72;;;;;;;13.77;28.14;99965.16;6218256;23;20028;-80
2021/04/10 10:20:24;;;;;;;3.65;2.50;;;;;;;13.75;26.45;99961.94;6218145;23;20000;-80
2021/04/10 10:22:50;;;;;;;2.42;2.13;;;;;;;13.72;27.95;99959.81;6217787;23;20414;-80
2021/04/10 10:25:15;;;;;;;3.78;2.33;;;;;;;13.70;27.91;99951.19;6217769;23;20004;-80
2021/04/10 10:27:47;;;;;;;5.90;2.28;;;;;;;13.76;29.28;99952.78;6242953;23;20057;-80
2021/04/10 10:30:15;;;;;;;2.10;1.95;;;;;;;13.79;28.24;99943.38;6217464;23;20004;-80
2021/04/10 10:32:46;;;;;;;2.33;2.13;;;;;;;13.79;27.49;99942.56;6217338;23;20252;-79
2021/04/10 10:35:13;;;;;;;3.10;2.50;;;;;;;13.82;28.13;99942.81;6218086;23;20401;-80
2021/04/10 10:37:39;;;;;;;4.00;2.90;;;;;;;13.83;27.73;99939.06;6217468;23;20099;-80
2021/04/10 10:40:06;;;;;;;4.88;2.10;;;;;;;13.83;27.28;99936.38;6218094;23;20238;-79
2021/04/10 10:42:32;;;;;;;3.10;2.03;;;;;;;13.81;26.82;99938.53;6217564;23;20074;-80
2021/04/10 10:44:57;;;;;;;3.88;2.40;;;;;;;13.82;27.88;99933.94;6243220;23;20421;-80
2021/04/10 10:47:26;;;;;;;6.13;2.22;;;;;;;13.82;26.85;99928.56;6243285;23;20008;-80
2021/04/10 10:49:52;;;;;;;3.55;2.45;;;;;;;13.85;26.87;99928.03;6217606;23;20448;-79
2021/04/10 10:52:19;;;;;;;3.60;2.60;;;;;;;13.85;27.66;99925.34;6217927;23;20030;-79
2021/04/10 10:54:49;;;;;;;3.88;2.55;;;;;;;13.88;26.79;99914.84;6217746;23;20377;-80
2021/04/10 10:57:17;;;;;;;2.58;1.52;;;;;;;13.96;27.36;99915.34;6217853;23;20314;-79
2021/04/10 10:59:42;;;;;;;2.67;2.20;;;;;;;14.04;27.04;99914.75;6217499;23;20062;-79
2021/04/10 11:02:09;;;;;;;4.35;2.35;;;;;;;14.07;26.55;99903.44;6242685;23;20004;-79
2021/04/10 11:04:36;;;;;;;4.20;2.95;;;;;;;14.07;25.74;99895.38;6217771;23;20436;-80
2021/04/10 11:07:05;;;;;;;6.72;2.67;;;;;;;14.02;26.24;99906.94;6217817;23;20376;-80
2021/04/10 11:09:35;;;;;;;3.85;2.50;;;;;;;13.98;26.65;99897.84;6217341;23;20006;-80
2021/04/10 11:12:10;;;;;;;7.43;3.10;;;;;;;13.86;26.34;99898.16;6217229;23;20050;-79
2021/04/10 11:14:42;;;;;;;3.78;2.70;;;;;;;13.76;26.51;99898.22;6216578;23;20000;-79
2021/04/10 11:17:09;;;;;;;5.75;3.03;;;;;;;13.63;26.45;99888.06;6217654;23;20094;-79
2021/04/10 11:19:38;;;;;;;3.45;2.45;;;;;;;13.44;26.49;99894.06;6216793;23;20004;-79
2021/04/10 11:22:06;;;;;;;4.60;2.90;;;;;;;13.39;27.09;99878.75;6216997;23;20027;-79
2021/04/10 11:24:35;;;;;;;;;;;;;;;13.39;26.85;99880.63;6217811;23;20325;-79
2021/04/10 11:27:09;;;;;;;;;;;;;;;13.41;27.06;99873.09;6243341;23;19961;-79
2021/04/10 11:29:35;;;;;;;6.03;2.00;;;;;;;13.44;27.58;99867.97;6217122;23;19961;-81
2021/04/10 11:32:15;;;;;;;5.32;2.78;;;;;;;13.55;27.56;99860.69;6242887;23;20396;-81
2021/04/10 11:34:46;;;;;;;3.08;2.50;;;;;;;13.63;26.15;99858.50;6242496;23;20384;-80